NCY weather

Naval Wepons Station Helipad
Yorktown, Virginia, United States

Public forecast

Using degrees Fahrenheit for public forecast. Weather courtesy of forecast.io.

METAR (pilot weather report)

Closest report is Williamsburg Jamestown Airport, 7.0 nm (13.0 km) WSW. Retrieved 2019/09/19 05:35 UTC (0 seconds ago):

KJGG 190535Z AUTO 00000KT 10SM CLR 17/14 A3024 RMK AO1

TAF (pilot weather forecast)

Forecast is more than 6 hours old.

Closest forecast is Felker Army Air Field, 8.3 nm (15.4 km) SSW. Retrieved 2019/09/18 18:00 UTC (11 hours ago):

TAF TAF KFAF 181800Z 1818/1924 05012G18KT 9999 BKN035 QNH3016INS BECMG 1900/1901 05009KT 9999 BKN025 QNH3022INS TX23/1818Z TN17/1911Z LAST NO AMDS AFT 1903 NEXT 1910